Bayview, Wisconsin
Current Conditions -  °F | °C
As of 3:52 PM on Tuesday 25 Nov 2014 (Local Time) from KMKE Reporting Station
Overcast Overcast  
Wind Chill: -10°   Ceiling: 1600
Heat Index: -4°   Visibility: 10mi
Dew Point: -8°   Wind: 10mph
Humidity: 75%   Direction: 230°SW
Pressure: 30.12"   Gusts: NA
Location:  42.9708°N, 87.8754°W
Report Text: KMKE 252152Z 23009KT 10SM OVC016 M04/M08 A3012 RMK AO2 SLP212 T10441083
Loading
Personal Weather Stations






























Interactive Weather Map New forecast layout! Learn more

10-Day Weather Forecast

Advertisements
Track Severe Weather on mobile